Time;durP1;ratioP1;P1;durP2;ratioP2;P2;SDS_P1;SDS_P2;PMS_P1;PMS_P2;Temp;Humidity;BMP_temperature;BMP_pressure;BME280_temperature;BME280_humidity;BME280_pressure;Samples;Min_cycle;Max_cycle;Signal;HPM_P1;HPM_P2
2022/04/25 00:00:58;;;;;;;4.38;2.55;;;18.50;48.60;;;;;;5034494;28;20170;-87
2022/04/25 00:03:26;;;;;;;3.05;2.40;;;18.40;48.90;;;;;;5033611;28;20159;-87
2022/04/25 00:05:52;;;;;;;3.95;2.60;;;18.50;48.70;;;;;;5034193;28;20166;-87
2022/04/25 00:08:18;;;;;;;4.00;2.45;;;18.50;48.80;;;;;;5034621;28;20170;-87
2022/04/25 00:10:43;;;;;;;3.70;2.70;;;18.50;48.80;;;;;;5034229;28;20155;-88
2022/04/25 00:13:09;;;;;;;3.17;2.55;;;18.50;49.10;;;;;;5035114;28;20170;-88
2022/04/25 00:15:35;;;;;;;3.05;2.38;;;18.50;48.70;;;;;;5034281;28;20248;-87
2022/04/25 00:18:00;;;;;;;3.47;2.40;;;18.50;48.70;;;;;;5033874;28;20261;-88
2022/04/25 00:20:27;;;;;;;3.03;2.35;;;18.50;48.80;;;;;;5034062;28;20266;-87
2022/04/25 00:22:53;;;;;;;3.70;2.58;;;18.50;48.70;;;;;;5034222;28;20156;-88
2022/04/25 00:25:18;;;;;;;3.05;2.42;;;18.50;49.00;;;;;;5033911;28;20163;-87
2022/04/25 00:27:48;;;;;;;2.65;2.20;;;18.50;49.00;;;;;;5033835;28;20189;-87
2022/04/25 00:30:17;;;;;;;3.47;2.58;;;18.40;48.50;;;;;;5033168;28;20182;-87
2022/04/25 00:32:45;;;;;;;2.90;2.50;;;18.40;48.90;;;;;;5033201;28;20552;-88
2022/04/25 00:35:14;;;;;;;3.40;2.35;;;18.40;49.10;;;;;;5032980;28;20244;-89
2022/04/25 00:37:44;;;;;;;3.33;2.65;;;18.40;49.10;;;;;;5049667;28;20260;-88
2022/04/25 00:40:14;;;;;;;3.45;2.70;;;18.40;48.50;;;;;;5049354;28;20174;-89
2022/04/25 00:42:42;;;;;;;5.68;2.58;;;18.40;48.90;;;;;;5032787;28;20190;-88
2022/04/25 00:45:13;;;;;;;4.30;3.08;;;18.40;49.60;;;;;;5032539;28;20186;-87
2022/04/25 00:47:43;;;;;;;4.30;2.80;;;18.40;49.00;;;;;;5049436;28;20183;-88
2022/04/25 00:50:09;;;;;;;4.03;2.50;;;18.40;49.00;;;;;;5049289;28;20214;-87
2022/04/25 00:52:35;;;;;;;3.00;2.53;;;18.40;49.20;;;;;;5033283;28;20633;-88
2022/04/25 00:55:04;;;;;;;3.20;2.60;;;18.40;48.80;;;;;;5033034;28;20201;-88
2022/04/25 00:57:32;;;;;;;3.55;2.67;;;18.40;49.30;;;;;;5048724;28;20190;-88
2022/04/25 00:59:59;;;;;;;3.10;2.75;;;18.40;49.10;;;;;;5032368;28;20183;-89
2022/04/25 01:02:29;;;;;;;4.50;2.70;;;18.40;49.10;;;;;;5032272;28;20600;-88
2022/04/25 01:04:57;;;;;;;3.75;2.70;;;18.30;49.20;;;;;;5049155;28;20542;-87
2022/04/25 01:07:24;;;;;;;2.97;2.50;;;18.40;49.20;;;;;;5033032;28;20159;-87
2022/04/25 01:09:51;;;;;;;2.80;2.30;;;18.40;49.20;;;;;;5048861;28;20645;-86
2022/04/25 01:12:18;;;;;;;3.67;2.70;;;18.30;49.20;;;;;;5048848;28;20268;-88
2022/04/25 01:14:45;;;;;;;2.75;2.30;;;18.40;49.30;;;;;;5048476;28;20232;-87
2022/04/25 01:17:12;;;;;;;3.10;2.50;;;18.40;49.10;;;;;;5032168;28;20186;-88
2022/04/25 01:19:39;;;;;;;3.13;2.50;;;18.30;49.20;;;;;;5031995;28;20183;-87
2022/04/25 01:22:13;;;;;;;2.85;2.58;;;18.40;49.20;;;;;;5048587;28;20225;-89
2022/04/25 01:27:26;;;;;;;2.55;2.33;;;18.40;49.00;;;;;;5046362;28;20232;-88
2022/04/25 01:29:53;;;;;;;3.90;2.50;;;18.40;48.90;;;;;;5048452;28;20182;-88
2022/04/25 01:32:23;;;;;;;3.22;2.50;;;18.30;49.20;;;;;;5048420;28;20186;-88
2022/04/25 01:34:53;;;;;;;3.38;2.70;;;18.30;49.20;;;;;;5031994;28;20714;-88
2022/04/25 01:37:20;;;;;;;3.28;2.70;;;18.30;49.20;;;;;;5031807;28;20534;-88
2022/04/25 01:39:52;;;;;;;3.53;2.47;;;18.30;49.20;;;;;;5048481;28;20186;-87
2022/04/25 01:42:19;;;;;;;3.50;2.95;;;18.40;49.40;;;;;;5031932;28;20182;-87
2022/04/25 01:44:48;;;;;;;3.35;2.63;;;18.30;49.20;;;;;;5032610;28;20151;-88
2022/04/25 01:47:17;;;;;;;2.97;2.30;;;18.30;49.10;;;;;;5048112;28;20257;-87
2022/04/25 01:49:43;;;;;;;3.55;2.60;;;18.30;49.20;;;;;;5047904;28;20210;-87
2022/04/25 01:52:26;;;;;;;3.53;2.30;;;18.30;49.40;;;;;;5032305;28;20264;-89
2022/04/25 01:54:55;;;;;;;3.42;2.60;;;18.40;49.30;;;;;;5032648;28;20183;-88
2022/04/25 01:57:24;;;;;;;2.90;2.58;;;18.30;49.20;;;;;;5031529;28;20186;-87
2022/04/25 01:59:53;;;;;;;3.70;2.40;;;18.30;49.30;;;;;;5048033;28;20186;-88
2022/04/25 02:02:23;;;;;;;3.80;2.67;;;18.30;49.30;;;;;;5047881;28;20174;-88
2022/04/25 02:04:51;;;;;;;4.15;2.55;;;18.30;49.30;;;;;;5031421;28;20333;-88
2022/04/25 02:07:17;;;;;;;3.28;2.67;;;18.30;49.30;;;;;;5047844;28;20191;-88
2022/04/25 02:09:45;;;;;;;3.40;2.72;;;18.30;49.40;;;;;;5031986;28;20261;-88
2022/04/25 02:12:11;;;;;;;3.08;2.60;;;18.30;49.30;;;;;;5048095;28;20193;-86
2022/04/25 02:14:40;;;;;;;3.03;2.60;;;18.30;49.50;;;;;;5032179;28;20162;-87
2022/04/25 02:17:07;;;;;;;3.42;2.70;;;18.30;49.40;;;;;;5032172;28;20174;-89
2022/04/25 02:19:38;;;;;;;2.80;2.40;;;18.30;49.40;;;;;;5032041;28;20167;-87
2022/04/25 02:22:04;;;;;;;3.13;2.58;;;18.30;49.50;;;;;;5032032;28;20201;-88
2022/04/25 02:24:29;;;;;;;3.28;2.70;;;18.30;49.30;;;;;;5031881;28;20191;-87
2022/04/25 02:26:59;;;;;;;4.28;2.40;;;18.30;49.30;;;;;;5035537;28;20178;-89
2022/04/25 02:29:26;;;;;;;3.25;2.45;;;18.30;49.30;;;;;;5051877;28;20179;-87
2022/04/25 02:31:53;;;;;;;3.63;2.72;;;18.30;49.40;;;;;;5051716;28;20523;-87
2022/04/25 02:34:24;;;;;;;3.22;2.50;;;18.20;49.20;;;;;;5051834;28;20316;-87
2022/04/25 02:36:55;;;;;;;2.92;2.42;;;18.30;49.40;;;;;;5035301;28;20275;-87
2022/04/25 02:39:23;;;;;;;4.65;2.60;;;18.30;49.40;;;;;;5035352;28;20187;-87
2022/04/25 02:41:52;;;;;;;2.80;2.50;;;18.30;49.30;;;;;;5034941;28;20186;-88
2022/04/25 02:44:22;;;;;;;3.03;2.40;;;18.30;49.50;;;;;;5035128;28;20673;-88
2022/04/25 02:46:48;;;;;;;3.67;2.80;;;18.30;49.50;;;;;;5035080;28;20548;-87
2022/04/25 02:49:15;;;;;;;2.95;2.65;;;18.20;49.20;;;;;;5035654;28;20155;-87
2022/04/25 02:51:41;;;;;;;2.75;2.30;;;18.30;49.30;;;;;;5051290;28;20387;-88
2022/04/25 02:54:11;;;;;;;3.00;2.58;;;18.20;49.40;;;;;;5035665;28;20252;-88
2022/04/25 02:56:37;;;;;;;4.53;2.65;;;18.20;49.30;;;;;;5034993;28;20210;-87
2022/04/25 02:59:03;;;;;;;2.67;2.38;;;18.30;49.30;;;;;;5036077;28;20263;-88
2022/04/25 03:01:29;;;;;;;4.07;2.67;;;18.20;49.30;;;;;;5035374;28;20210;-88
2022/04/25 03:03:55;;;;;;;2.92;2.60;;;18.20;49.50;;;;;;5035921;28;20637;-88
2022/04/25 03:06:22;;;;;;;3.65;2.70;;;18.20;49.60;;;;;;5051979;28;20198;-87
2022/04/25 03:08:47;;;;;;;3.42;2.58;;;18.20;49.50;;;;;;5035240;28;20182;-87
2022/04/25 03:11:13;;;;;;;4.18;2.63;;;18.20;49.50;;;;;;5035720;28;20621;-87
2022/04/25 03:13:40;;;;;;;3.22;2.80;;;18.20;49.50;;;;;;5035108;28;20169;-86
2022/04/25 03:16:06;;;;;;;3.03;2.60;;;18.20;49.60;;;;;;5034937;28;20229;-88
2022/04/25 03:18:32;;;;;;;4.28;2.47;;;18.20;49.40;;;;;;5034968;28;20618;-87
2022/04/25 03:20:57;;;;;;;3.25;2.53;;;18.20;49.50;;;;;;5035416;28;20214;-87
2022/04/25 03:23:23;;;;;;;3.70;2.60;;;18.20;49.50;;;;;;5034997;28;20533;-87
2022/04/25 03:25:50;;;;;;;3.60;2.97;;;18.20;49.40;;;;;;5035059;28;20163;-87
2022/04/25 03:28:16;;;;;;;4.53;2.60;;;18.20;49.30;;;;;;5034860;28;20587;-87
2022/04/25 03:30:43;;;;;;;3.15;2.35;;;18.20;49.50;;;;;;5034888;28;20162;-87
2022/04/25 03:33:11;;;;;;;3.60;2.47;;;18.20;49.40;;;;;;5034777;28;20166;-87
2022/04/25 03:35:41;;;;;;;3.70;2.50;;;18.20;49.40;;;;;;5034863;28;20197;-87
2022/04/25 03:38:08;;;;;;;3.47;2.78;;;18.20;49.50;;;;;;5034467;28;20541;-89
2022/04/25 03:40:35;;;;;;;3.15;2.50;;;18.20;49.60;;;;;;5035135;28;20181;-88
2022/04/25 03:43:02;;;;;;;3.70;2.65;;;18.20;49.60;;;;;;5035168;28;20167;-86
2022/04/25 03:45:29;;;;;;;2.67;2.35;;;18.20;49.60;;;;;;5034852;28;20189;-88
2022/04/25 03:47:57;;;;;;;3.55;2.60;;;18.20;49.50;;;;;;5034766;28;20201;-87
2022/04/25 03:50:23;;;;;;;3.63;2.50;;;18.20;49.50;;;;;;5050232;28;20609;-88
2022/04/25 03:52:49;;;;;;;2.70;2.40;;;18.20;49.40;;;;;;5034774;28;20200;-87
2022/04/25 03:58:03;;;;;;;3.40;2.70;;;18.20;49.40;;;;;;5034758;28;20151;-87
2022/04/25 04:00:29;;;;;;;3.60;2.65;;;18.20;49.30;;;;;;5034601;28;20609;-89
2022/04/25 04:02:54;;;;;;;3.65;2.80;;;18.20;49.30;;;;;;5034681;28;20170;-87
2022/04/25 04:05:21;;;;;;;3.88;2.80;;;18.20;49.40;;;;;;5034485;28;20159;-87
2022/04/25 04:07:49;;;;;;;2.60;2.20;;;18.20;49.30;;;;;;5034473;28;20163;-88
2022/04/25 04:10:16;;;;;;;2.95;2.65;;;18.20;49.10;;;;;;5034567;28;20198;-87
2022/04/25 04:12:42;;;;;;;3.38;2.75;;;18.20;49.20;;;;;;5034197;28;20217;-87
2022/04/25 04:15:08;;;;;;;3.35;2.70;;;18.20;49.10;;;;;;5034328;28;20237;-87
2022/04/25 04:17:35;;;;;;;3.10;2.60;;;18.20;49.10;;;;;;5034232;28;20581;-86
2022/04/25 04:20:02;;;;;;;2.40;2.20;;;18.20;49.20;;;;;;5033972;28;20529;-87
2022/04/25 04:22:32;;;;;;;2.95;2.47;;;18.30;49.40;;;;;;5033939;28;20178;-88
2022/04/25 04:25:04;;;;;;;2.88;2.40;;;18.20;49.30;;;;;;5049725;28;20183;-87
2022/04/25 04:27:34;;;;;;;4.18;2.90;;;18.20;49.20;;;;;;5049395;28;20549;-87
2022/04/25 04:30:05;;;;;;;3.00;2.47;;;18.20;49.30;;;;;;5033205;28;20186;-86
2022/04/25 04:32:34;;;;;;;2.55;2.28;;;18.20;49.20;;;;;;5033054;28;20256;-86
2022/04/25 04:35:02;;;;;;;4.50;2.80;;;18.20;49.10;;;;;;5049674;28;20214;-87
2022/04/25 04:37:33;;;;;;;4.80;2.58;;;18.20;49.10;;;;;;5049555;28;20236;-88
2022/04/25 04:42:46;;;;;;;3.13;2.55;;;18.30;49.10;;;;;;5033295;28;20174;-88
2022/04/25 04:45:16;;;;;;;4.15;2.35;;;18.20;49.10;;;;;;5049474;28;20197;-88
2022/04/25 04:47:42;;;;;;;2.63;2.40;;;18.30;48.80;;;;;;5049000;28;20191;-86
2022/04/25 04:50:14;;;;;;;2.90;2.42;;;18.30;48.70;;;;;;5032928;28;20226;-87
2022/04/25 04:52:40;;;;;;;2.72;2.33;;;18.30;48.70;;;;;;5033297;28;20609;-86
2022/04/25 04:55:06;;;;;;;4.05;2.60;;;18.30;48.40;;;;;;5033192;28;20214;-85
2022/04/25 04:57:33;;;;;;;3.72;2.88;;;18.30;48.20;;;;;;5033440;28;20213;-86
2022/04/25 04:59:58;;;;;;;3.08;2.50;;;18.40;48.40;;;;;;5033253;28;20174;-86
2022/04/25 05:02:25;;;;;;;2.78;2.47;;;18.40;47.50;;;;;;5033060;28;20170;-89
2022/04/25 05:04:51;;;;;;;3.22;2.67;;;18.40;47.90;;;;;;5050448;28;20530;-87
2022/04/25 05:07:16;;;;;;;2.53;2.25;;;18.40;48.00;;;;;;5032983;28;20166;-86
2022/04/25 05:09:42;;;;;;;3.10;2.40;;;18.40;48.40;;;;;;5033494;28;20173;-86
2022/04/25 05:12:09;;;;;;;3.17;2.30;;;18.40;48.00;;;;;;5033007;28;20585;-89
2022/04/25 05:14:35;;;;;;;2.95;2.47;;;18.40;48.40;;;;;;5032885;28;20177;-86
2022/04/25 05:17:04;;;;;;;3.42;2.50;;;18.40;47.80;;;;;;5033524;28;20245;-87
2022/04/25 05:19:32;;;;;;;3.42;2.60;;;18.40;48.30;;;;;;5049049;28;20217;-87
2022/04/25 05:22:01;;;;;;;2.92;2.10;;;18.40;47.90;;;;;;5048951;28;20196;-88
2022/04/25 05:24:31;;;;;;;3.10;2.25;;;18.50;47.60;;;;;;5048850;28;20175;-88
2022/04/25 05:26:56;;;;;;;2.72;2.45;;;18.50;47.60;;;;;;5032141;28;20240;-88
2022/04/25 05:29:22;;;;;;;3.15;2.60;;;18.50;47.50;;;;;;5032803;28;20163;-87
2022/04/25 05:31:50;;;;;;;3.08;2.47;;;18.50;47.70;;;;;;5033774;28;20159;-87
2022/04/25 05:34:18;;;;;;;2.60;2.38;;;18.40;47.40;;;;;;5032848;28;20209;-89
2022/04/25 05:36:44;;;;;;;3.20;2.50;;;18.50;47.40;;;;;;5032591;28;20209;-87
2022/04/25 05:39:12;;;;;;;3.05;2.50;;;18.60;47.10;;;;;;5032805;28;20151;-87
2022/04/25 05:41:38;;;;;;;2.85;2.40;;;18.60;47.20;;;;;;5048700;28;20190;-87
2022/04/25 05:44:04;;;;;;;3.08;2.63;;;18.60;46.90;;;;;;5034109;28;20262;-88
2022/04/25 05:46:30;;;;;;;2.30;2.10;;;18.60;46.80;;;;;;5034133;28;20163;-87
2022/04/25 05:54:36;;;;;;;3.95;2.28;;;18.70;46.80;;;;;;5034237;28;20162;-87
2022/04/25 05:57:06;;;;;;;3.33;2.33;;;18.60;45.80;;;;;;5049952;28;20550;-87
2022/04/25 05:59:36;;;;;;;3.60;2.83;;;18.60;46.60;;;;;;5032008;28;20206;-88
2022/04/25 06:02:02;;;;;;;3.95;2.70;;;18.50;47.10;;;;;;5032660;28;20269;-86
2022/04/25 06:04:30;;;;;;;2.85;2.25;;;18.60;46.90;;;;;;5037257;28;20202;-87
2022/04/25 06:07:04;;;;;;;3.25;2.35;;;18.60;46.10;;;;;;5038865;28;20179;-87
2022/04/25 06:09:35;;;;;;;2.58;2.28;;;18.60;46.60;;;;;;5043028;28;20175;-86
2022/04/25 06:12:15;;;;;;;;;;;;;;;;;;;;;
2022/04/25 06:14:41;;;;;;;2.53;2.10;;;18.60;46.70;;;;;;5019311;28;20261;-86
2022/04/25 06:17:13;;;;;;;3.17;2.25;;;18.60;45.90;;;;;;5045909;28;20159;-85
2022/04/25 06:19:41;;;;;;;3.88;2.33;;;18.60;46.00;;;;;;5041951;28;20649;-86
2022/04/25 06:22:09;;;;;;;2.78;2.33;;;18.60;46.50;;;;;;5066059;28;20193;-88
2022/04/25 06:24:38;;;;;;;3.13;2.30;;;18.50;46.80;;;;;;5058911;28;20154;-86
2022/04/25 06:27:08;;;;;;;3.03;2.38;;;18.60;46.90;;;;;;5041226;28;20162;-85
2022/04/25 06:29:33;;;;;;;3.70;2.20;;;18.60;46.60;;;;;;5044200;28;20173;-89
2022/04/25 06:32:03;;;;;;;2.55;2.20;;;18.50;46.80;;;;;;5044671;28;20190;-85
2022/04/25 06:34:32;;;;;;;3.15;2.30;;;18.60;46.50;;;;;;5025555;28;20174;-88
2022/04/25 06:36:58;;;;;;;4.03;2.40;;;18.50;47.40;;;;;;5041273;28;20639;-88
2022/04/25 06:39:26;;;;;;;2.35;2.15;;;18.60;46.70;;;;;;5043807;28;20178;-88
2022/04/25 06:42:08;;;;;;;;;;;;;;;;;;;;;
2022/04/25 06:44:36;;;;;;;2.17;1.98;;;18.60;46.30;;;;;;5032299;28;20696;-87
2022/04/25 06:47:02;;;;;;;2.72;2.30;;;18.60;46.50;;;;;;5028850;28;20189;-85
2022/04/25 06:49:28;;;;;;;3.45;2.20;;;18.60;46.70;;;;;;5046771;28;20162;-89
2022/04/25 06:52:02;;;;;;;2.95;2.10;;;18.70;46.10;;;;;;5033493;28;20229;-86
2022/04/25 06:55:04;;;;;;;3.08;2.25;;;18.70;45.80;;;;;;5046903;28;20309;-87
2022/04/25 06:57:38;;;;;;;3.25;2.00;;;18.80;45.20;;;;;;5060399;28;20188;-86
2022/04/25 07:00:17;;;;;;;2.58;2.25;;;18.70;45.70;;;;;;5042221;28;20229;-85
2022/04/25 07:02:57;;;;;;;3.25;2.00;;;18.70;45.90;;;;;;5038708;28;20661;-87
2022/04/25 07:05:29;;;;;;;3.45;2.17;;;18.80;45.90;;;;;;5011271;28;20237;-86
2022/04/25 07:07:55;;;;;;;2.40;2.10;;;18.80;46.20;;;;;;5004038;28;20229;-87
2022/04/25 07:10:26;;;;;;;2.35;2.05;;;18.80;45.50;;;;;;5003628;28;20182;-86
2022/04/25 07:12:52;;;;;;;3.10;2.30;;;18.80;45.50;;;;;;4960694;28;20202;-85
2022/04/25 07:15:25;;;;;;;3.22;2.22;;;18.80;45.70;;;;;;5005780;28;20208;-84
2022/04/25 07:18:00;;;;;;;3.05;2.33;;;18.70;46.80;;;;;;5006385;28;20274;-84
2022/04/25 07:20:30;;;;;;;3.22;2.60;;;18.60;46.90;;;;;;4990725;28;20183;-86
2022/04/25 07:29:11;;;;;;;3.35;1.90;;;18.70;46.00;;;;;;4989467;28;20191;-86
2022/04/25 07:31:41;;;;;;;3.40;2.10;;;18.80;45.70;;;;;;4955168;28;20185;-89
2022/04/25 07:34:22;;;;;;;3.45;1.95;;;18.70;46.40;;;;;;4955059;28;20187;-83
2022/04/25 07:36:55;;;;;;;2.80;2.10;;;18.80;45.60;;;;;;4979665;28;20226;-86
2022/04/25 07:39:25;;;;;;;3.58;2.45;;;18.90;45.60;;;;;;4992021;28;20278;-85
2022/04/25 07:41:57;;;;;;;2.92;2.20;;;18.90;45.40;;;;;;5008448;28;20194;-86
2022/04/25 07:44:24;;;;;;;2.85;2.10;;;18.80;45.60;;;;;;4976545;28;20184;-86
2022/04/25 07:46:51;;;;;;;3.80;2.40;;;18.90;45.30;;;;;;4984847;28;20216;-87
2022/04/25 07:49:20;;;;;;;3.20;2.40;;;18.90;45.50;;;;;;4984215;28;20219;-87
2022/04/25 07:51:49;;;;;;;4.07;2.22;;;18.90;45.50;;;;;;4964582;28;20228;-86
2022/04/25 07:54:15;;;;;;;2.33;2.13;;;18.90;45.30;;;;;;4968555;28;20187;-87
2022/04/25 07:56:42;;;;;;;2.67;2.20;;;18.90;46.00;;;;;;4968809;28;20215;-89
2022/04/25 07:59:15;;;;;;;2.00;1.80;;;18.90;45.30;;;;;;4982634;28;20188;-88
2022/04/25 08:01:48;;;;;;;2.88;2.53;;;18.90;45.70;;;;;;4970251;28;20665;-87
2022/04/25 08:04:16;;;;;;;5.72;2.33;;;18.90;45.70;;;;;;4986163;28;20722;-87
2022/04/25 08:07:00;;;;;;;2.95;2.25;;;18.90;45.70;;;;;;5002831;28;20200;-88
2022/04/25 08:09:29;;;;;;;3.78;2.30;;;19.00;45.30;;;;;;4987527;28;20207;-89
2022/04/25 08:20:21;;;;;;;6.82;2.40;;;19.00;45.40;;;;;;4978345;28;20176;-88
2022/04/25 08:23:30;;;;;;;;;;;;;;;;;;;;;
2022/04/25 08:26:15;;;;;;;3.90;2.30;;;19.10;45.50;;;;;;4981601;28;20245;-87
2022/04/25 08:29:02;;;;;;;;;;;;;;;;;;;;;
2022/04/25 08:31:44;;;;;;;7.05;2.42;;;19.00;45.70;;;;;;5018315;28;20253;-86
2022/04/25 08:34:16;;;;;;;5.53;2.17;;;19.10;45.40;;;;;;4981400;28;20209;-87
2022/04/25 08:36:48;;;;;;;2.90;2.00;;;19.10;45.90;;;;;;5010695;28;20282;-85
2022/04/25 08:39:16;;;;;;;3.22;2.03;;;19.10;45.00;;;;;;4977057;28;20262;-86
2022/04/25 08:41:50;;;;;;;4.15;2.17;;;19.20;44.80;;;;;;4991644;28;20194;-89
2022/04/25 08:44:19;;;;;;;3.88;2.10;;;19.30;45.10;;;;;;4948591;29;20253;-90
2022/04/25 08:46:48;;;;;;;6.93;2.45;;;19.20;44.80;;;;;;4949122;29;20205;-88
2022/04/25 08:49:57;;;;;;;;;;;;;;;;;;;;;
2022/04/25 09:03:25;;;;;;;;;;;;;;;;;;;;;
2022/04/25 09:06:54;;;;;;;;;;;;;;;;;;;;;
2022/04/25 09:09:23;;;;;;;3.25;2.42;;;19.10;45.20;;;;;;4792977;29;20274;-86
2022/04/25 09:12:09;;;;;;;6.63;2.33;;;19.20;45.20;;;;;;4804401;29;20204;-87
2022/04/25 09:14:38;;;;;;;5.40;2.03;;;19.20;45.30;;;;;;4745144;29;20210;-85
2022/04/25 09:17:33;;;;;;;6.53;2.40;;;19.20;44.80;;;;;;4776678;29;20222;-86
2022/04/25 09:20:03;;;;;;;4.53;2.65;;;19.30;45.20;;;;;;4778343;29;20735;-87
2022/04/25 09:22:44;;;;;;;3.17;2.15;;;19.10;45.50;;;;;;4790926;29;20194;-86
2022/04/25 09:25:27;;;;;;;6.22;2.25;;;19.10;45.60;;;;;;4763420;29;20186;-85
2022/04/25 09:28:20;;;;;;;6.65;2.30;;;19.10;45.30;;;;;;4779565;29;20193;-86
2022/04/25 09:31:03;;;;;;;2.55;2.10;;;19.20;45.30;;;;;;4776008;29;20217;-89
2022/04/25 09:33:33;;;;;;;6.13;2.10;;;19.20;45.60;;;;;;4809002;29;20189;-89
2022/04/25 09:36:09;;;;;;;2.17;1.98;;;19.10;45.80;;;;;;4842105;29;20225;-86
2022/04/25 09:38:43;;;;;;;3.75;2.13;;;19.10;45.30;;;;;;4841680;29;20181;-88
2022/04/25 09:41:12;;;;;;;2.35;2.03;;;19.10;45.50;;;;;;4884573;29;20693;-88
2022/04/25 09:43:47;;;;;;;2.97;2.20;;;19.10;45.50;;;;;;4958121;28;20215;-89
2022/04/25 09:46:25;;;;;;;8.05;2.17;;;19.10;45.20;;;;;;4995598;28;20629;-85
2022/04/25 09:49:02;;;;;;;3.63;2.30;;;19.20;45.70;;;;;;5032279;28;20221;-87
2022/04/25 09:51:28;;;;;;;5.47;2.30;;;19.10;45.30;;;;;;5033422;28;20394;-88
2022/04/25 09:54:03;;;;;;;2.50;2.30;;;19.20;44.90;;;;;;5033664;28;20238;-87
2022/04/25 09:56:34;;;;;;;2.88;2.15;;;19.20;44.50;;;;;;5017262;28;20275;-89
2022/04/25 09:59:08;;;;;;;5.03;2.13;;;19.10;44.80;;;;;;5017159;28;20233;-86
2022/04/25 10:01:43;;;;;;;2.90;2.20;;;19.20;44.20;;;;;;5016188;28;20206;-87
2022/04/25 10:04:40;;;;;;;2.40;2.20;;;19.20;44.30;;;;;;5049247;28;20155;-87
2022/04/25 10:07:10;;;;;;;2.85;2.38;;;19.40;44.00;;;;;;5049445;28;20162;-87
2022/04/25 10:09:45;;;;;;;3.17;2.25;;;19.30;44.00;;;;;;5049137;28;20648;-85
2022/04/25 10:12:22;;;;;;;4.70;2.40;;;19.40;44.40;;;;;;5034405;28;20159;-88
2022/04/25 10:15:00;;;;;;;2.63;2.03;;;19.20;44.70;;;;;;5031704;28;20186;-86
2022/04/25 10:17:31;;;;;;;2.90;2.10;;;19.30;44.40;;;;;;5031617;28;20178;-87
2022/04/25 10:20:07;;;;;;;2.60;2.20;;;19.30;44.40;;;;;;5032623;28;20269;-86
2022/04/25 10:22:35;;;;;;;3.92;2.20;;;19.30;43.80;;;;;;5035286;28;20182;-89
2022/04/25 10:25:06;;;;;;;2.63;2.38;;;19.30;43.90;;;;;;5034511;28;20238;-87
2022/04/25 10:27:41;;;;;;;3.75;2.30;;;19.30;43.90;;;;;;5034177;28;20242;-86
2022/04/25 10:30:09;;;;;;;5.63;2.30;;;19.30;44.20;;;;;;5034609;28;20553;-86
2022/04/25 10:32:44;;;;;;;3.15;2.22;;;19.30;44.20;;;;;;5052502;28;20151;-88
2022/04/25 10:35:42;;;;;;;2.95;2.58;;;19.40;43.60;;;;;;5050977;28;20186;-86
2022/04/25 10:44:11;;;;;;;2.83;2.25;;;19.30;44.10;;;;;;5035313;28;20226;-88
2022/04/25 10:47:17;;;;;;;3.08;2.17;;;19.30;44.20;;;;;;5051375;28;20181;-86
2022/04/25 10:50:07;;;;;;;4.13;2.10;;;19.30;44.60;;;;;;5039104;28;20155;-87
2022/04/25 10:55:20;;;;;;;5.72;2.17;;;19.30;45.00;;;;;;5054167;28;20654;-86
2022/04/25 10:58:02;;;;;;;5.10;2.22;;;19.20;44.70;;;;;;5054176;28;20151;-88
2022/04/25 11:00:44;;;;;;;2.20;1.92;;;19.20;44.60;;;;;;5037931;28;20198;-88
2022/04/25 11:03:19;;;;;;;3.25;2.08;;;19.20;44.50;;;;;;5037255;28;20171;-88
2022/04/25 11:05:51;;;;;;;2.45;2.00;;;19.20;45.20;;;;;;5038359;28;20178;-87
2022/04/25 11:08:27;;;;;;;3.10;2.17;;;19.20;44.70;;;;;;5035556;28;20217;-87
2022/04/25 11:11:02;;;;;;;2.67;2.25;;;19.20;44.90;;;;;;5035854;28;20226;-86
2022/04/25 11:13:31;;;;;;;3.67;2.13;;;19.20;44.60;;;;;;5052735;28;20181;-87
2022/04/25 11:15:58;;;;;;;3.78;2.03;;;19.20;44.70;;;;;;5052892;28;20191;-87
2022/04/25 11:18:33;;;;;;;2.40;2.03;;;19.20;44.60;;;;;;5035900;28;20170;-88
2022/04/25 11:21:08;;;;;;;3.55;2.30;;;19.20;44.00;;;;;;5036554;28;20208;-87
2022/04/25 11:23:48;;;;;;;3.08;2.20;;;19.20;44.10;;;;;;5035495;28;20177;-86
2022/04/25 11:26:36;;;;;;;3.28;2.17;;;19.20;43.50;;;;;;5051995;28;20166;-88
2022/04/25 11:29:08;;;;;;;3.25;2.22;;;19.20;44.60;;;;;;5035758;28;20171;-88
2022/04/25 11:31:34;;;;;;;4.13;2.40;;;19.20;44.20;;;;;;5034703;28;20608;-87
2022/04/25 11:34:03;;;;;;;2.95;2.28;;;19.20;44.10;;;;;;5051579;28;20162;-87
2022/04/25 11:36:41;;;;;;;2.58;2.08;;;19.20;44.80;;;;;;5051557;28;20196;-87
2022/04/25 11:41:47;;;;;;;5.15;2.40;;;19.20;44.50;;;;;;5049798;28;20621;-87
2022/04/25 11:44:13;;;;;;;2.67;2.13;;;19.20;44.90;;;;;;5052741;28;20257;-88
2022/04/25 11:46:39;;;;;;;2.45;2.10;;;19.20;44.40;;;;;;5037831;28;20242;-89
2022/04/25 11:49:06;;;;;;;2.70;2.30;;;19.10;44.80;;;;;;5036138;28;20588;-87
2022/04/25 11:51:43;;;;;;;3.00;2.30;;;19.20;44.90;;;;;;5036008;28;20229;-86
2022/04/25 11:54:13;;;;;;;3.50;2.20;;;19.20;44.80;;;;;;5019438;28;20186;-88
2022/04/25 11:56:44;;;;;;;3.10;2.60;;;19.10;45.00;;;;;;5019218;28;20211;-87
2022/04/25 11:59:19;;;;;;;2.70;2.22;;;19.10;44.90;;;;;;5034949;28;20187;-88
2022/04/25 12:01:58;;;;;;;3.28;2.53;;;19.20;44.90;;;;;;5035279;28;20273;-87
2022/04/25 12:04:33;;;;;;;2.72;2.33;;;19.10;44.70;;;;;;5036344;28;20178;-88
2022/04/25 12:07:09;;;;;;;4.03;2.22;;;19.20;44.70;;;;;;5018729;28;20633;-89
2022/04/25 12:18:28;;;;;;;2.92;2.20;;;19.20;45.20;;;;;;5035378;28;20200;-86
2022/04/25 12:21:05;;;;;;;2.42;2.10;;;19.20;45.50;;;;;;5034765;28;20190;-86
2022/04/25 12:23:41;;;;;;;2.67;2.33;;;19.20;45.60;;;;;;5034570;28;20186;-87
2022/04/25 12:26:24;;;;;;;3.63;2.45;;;19.10;45.00;;;;;;5034330;28;20656;-87
2022/04/25 12:28:59;;;;;;;2.92;2.40;;;19.20;45.20;;;;;;5034871;28;20182;-88
2022/04/25 12:31:27;;;;;;;2.85;2.30;;;19.10;45.40;;;;;;5034651;28;20194;-86
2022/04/25 12:34:03;;;;;;;3.53;2.10;;;19.10;45.20;;;;;;5034374;28;20656;-88
2022/04/25 12:36:33;;;;;;;2.83;2.30;;;19.10;44.90;;;;;;5034507;28;20603;-87
2022/04/25 12:39:08;;;;;;;2.25;2.05;;;19.20;45.30;;;;;;5034972;28;20187;-88
2022/04/25 12:41:36;;;;;;;2.42;2.13;;;19.20;45.20;;;;;;5052028;28;20151;-87
2022/04/25 12:44:17;;;;;;;3.45;2.42;;;19.20;45.30;;;;;;5051945;28;20573;-90
2022/04/25 12:46:50;;;;;;;2.58;2.38;;;19.10;44.80;;;;;;5034625;28;20210;-87
2022/04/25 12:49:38;;;;;;;2.92;2.30;;;19.10;45.00;;;;;;5017780;28;20217;-89
2022/04/25 12:52:08;;;;;;;4.72;2.47;;;19.20;45.30;;;;;;5051713;28;20299;-88
2022/04/25 12:54:46;;;;;;;2.35;2.10;;;19.20;44.50;;;;;;5035405;28;20586;-86
2022/04/25 12:57:16;;;;;;;3.50;2.42;;;19.10;44.60;;;;;;5018302;28;20198;-86
2022/04/25 12:59:45;;;;;;;6.80;2.35;;;19.10;45.00;;;;;;5017637;28;20532;-86
2022/04/25 13:02:14;;;;;;;2.45;2.10;;;19.20;44.90;;;;;;5050136;28;20159;-85
2022/04/25 13:04:53;;;;;;;2.65;2.22;;;19.20;45.10;;;;;;5033460;28;20151;-87
2022/04/25 13:07:31;;;;;;;2.53;2.17;;;19.20;45.10;;;;;;5033531;28;20515;-87
2022/04/25 13:09:59;;;;;;;4.43;2.30;;;19.20;45.00;;;;;;5016926;28;20173;-86
2022/04/25 13:12:35;;;;;;;3.72;2.40;;;19.20;44.60;;;;;;5016939;28;20170;-89
2022/04/25 13:15:02;;;;;;;2.78;2.28;;;19.20;44.70;;;;;;5017806;28;20159;-88
2022/04/25 13:17:30;;;;;;;4.72;2.30;;;19.20;44.30;;;;;;5051418;28;20154;-86
2022/04/25 13:20:10;;;;;;;3.47;2.40;;;19.30;44.50;;;;;;5038704;28;20185;-88
2022/04/25 13:22:44;;;;;;;2.92;2.42;;;19.20;44.50;;;;;;5030927;28;20182;-88
2022/04/25 13:25:11;;;;;;;3.90;1.98;;;19.20;44.90;;;;;;5014675;28;20175;-89
2022/04/25 13:27:37;;;;;;;2.88;2.25;;;19.20;44.60;;;;;;5017121;28;20186;-85
2022/04/25 13:30:05;;;;;;;3.30;2.50;;;19.20;44.50;;;;;;5016616;28;20162;-87
2022/04/25 13:32:40;;;;;;;3.08;2.28;;;19.20;44.30;;;;;;5003097;28;20664;-86
2022/04/25 13:35:11;;;;;;;2.55;2.10;;;19.20;44.30;;;;;;5001523;28;20668;-87
2022/04/25 13:37:37;;;;;;;3.42;2.20;;;19.30;44.50;;;;;;5016447;28;20646;-87
2022/04/25 13:40:04;;;;;;;2.85;2.22;;;19.30;44.80;;;;;;5000673;28;20224;-87
2022/04/25 13:42:31;;;;;;;3.63;2.33;;;19.30;44.50;;;;;;5007518;28;20179;-86
2022/04/25 13:44:57;;;;;;;4.00;2.17;;;19.20;44.50;;;;;;5006003;28;20181;-87
2022/04/25 13:47:30;;;;;;;3.20;2.50;;;19.20;43.90;;;;;;5000708;28;20673;-85
2022/04/25 13:49:56;;;;;;;4.60;2.30;;;19.30;44.20;;;;;;5015507;28;20187;-88
2022/04/25 13:52:22;;;;;;;4.78;2.30;;;19.30;43.60;;;;;;4998983;28;20236;-85
2022/04/25 13:54:48;;;;;;;3.15;2.17;;;19.30;45.50;;;;;;5052351;28;20205;-87
2022/04/25 13:57:18;;;;;;;2.80;2.28;;;19.30;44.10;;;;;;5035754;28;20194;-89
2022/04/25 13:59:45;;;;;;;2.45;2.25;;;19.40;44.00;;;;;;5049925;28;20263;-89
2022/04/25 14:04:48;;;;;;;4.95;2.53;;;19.30;43.90;;;;;;5034932;28;20555;-88
2022/04/25 14:07:14;;;;;;;2.83;2.40;;;19.30;43.50;;;;;;5034768;28;20205;-88
2022/04/25 14:09:39;;;;;;;4.28;2.40;;;19.40;43.40;;;;;;5047558;28;20166;-85
2022/04/25 14:12:07;;;;;;;2.63;2.20;;;19.40;43.60;;;;;;5053148;28;20716;-86
2022/04/25 14:14:42;;;;;;;2.40;2.20;;;19.40;43.20;;;;;;5035227;28;20162;-87
2022/04/25 14:17:08;;;;;;;2.50;2.17;;;19.50;42.80;;;;;;5051112;28;20181;-87